createdAt,value
2023-01-29T00:02:31.120Z,2.70
2023-01-29T00:05:27.539Z,3.60
2023-01-29T00:08:13.861Z,2.97
2023-01-29T00:11:06.865Z,3.10
2023-01-29T00:13:53.559Z,3.03
2023-01-29T00:16:39.104Z,2.90
2023-01-29T00:19:24.257Z,3.23
2023-01-29T00:22:09.802Z,2.67
2023-01-29T00:24:55.131Z,3.10
2023-01-29T00:27:41.102Z,3.13
2023-01-29T00:30:26.373Z,2.83
2023-01-29T00:33:13.408Z,2.90
2023-01-29T00:36:01.729Z,3.00
2023-01-29T00:38:54.800Z,3.00
2023-01-29T00:42:00.501Z,2.73
2023-01-29T00:47:43.131Z,2.77
2023-01-29T00:50:28.408Z,2.87
2023-01-29T00:53:13.567Z,2.67
2023-01-29T00:55:58.894Z,2.90
2023-01-29T00:58:44.221Z,2.73
2023-01-29T01:01:48.131Z,2.43
2023-01-29T01:04:35.046Z,2.70
2023-01-29T01:07:20.358Z,2.17
2023-01-29T01:10:21.411Z,2.70
2023-01-29T01:13:07.140Z,2.80
2023-01-29T01:15:53.465Z,2.67
2023-01-29T01:18:39.255Z,2.70
2023-01-29T01:21:24.682Z,2.50
2023-01-29T01:24:10.151Z,2.70
2023-01-29T01:26:55.337Z,2.77
2023-01-29T01:29:41.063Z,2.67
2023-01-29T01:32:27.084Z,2.77
2023-01-29T01:35:14.740Z,2.37
2023-01-29T01:38:00.278Z,2.47
2023-01-29T01:40:45.865Z,2.27
2023-01-29T01:43:48.841Z,2.80
2023-01-29T01:46:37.576Z,2.67
2023-01-29T01:49:24.534Z,2.60
2023-01-29T01:52:10.489Z,2.27
2023-01-29T01:54:55.910Z,2.47
2023-01-29T01:57:45.913Z,2.47
2023-01-29T02:00:31.064Z,2.70
2023-01-29T02:03:38.496Z,2.50
2023-01-29T02:06:42.112Z,2.40
2023-01-29T02:12:21.072Z,2.40
2023-01-29T02:15:07.264Z,2.10
2023-01-29T02:17:52.609Z,2.13
2023-01-29T02:20:41.328Z,2.43
2023-01-29T02:24:07.827Z,2.30
2023-01-29T02:27:09.087Z,1.93
2023-01-29T02:30:09.241Z,2.10
2023-01-29T02:33:07.680Z,2.60
2023-01-29T02:36:11.293Z,2.30
2023-01-29T02:39:13.198Z,2.10
2023-01-29T02:42:27.312Z,2.00
2023-01-29T02:45:15.892Z,2.53
2023-01-29T02:48:02.369Z,1.87
2023-01-29T02:50:57.937Z,2.20
2023-01-29T02:53:56.710Z,2.03
2023-01-29T02:56:56.254Z,2.00
2023-01-29T02:59:50.007Z,2.13
2023-01-29T03:02:51.217Z,2.30
2023-01-29T03:06:02.284Z,2.07
2023-01-29T03:08:58.339Z,2.30
2023-01-29T03:11:51.845Z,2.03
2023-01-29T03:15:00.772Z,2.60
2023-01-29T03:18:05.120Z,2.23
2023-01-29T03:20:58.440Z,2.58
2023-01-29T03:24:03.485Z,2.20
2023-01-29T03:27:07.859Z,2.00
2023-01-29T03:30:17.635Z,2.40
2023-01-29T03:33:14.528Z,2.00
2023-01-29T03:36:06.625Z,2.27
2023-01-29T03:38:52.239Z,1.93
2023-01-29T03:41:49.732Z,2.27
2023-01-29T03:44:54.337Z,1.90
2023-01-29T03:47:50.468Z,2.00
2023-01-29T03:50:56.277Z,2.20
2023-01-29T03:53:51.635Z,1.80
2023-01-29T03:57:17.669Z,1.80
2023-01-29T04:00:17.424Z,1.90
2023-01-29T04:03:20.937Z,2.10
2023-01-29T04:06:17.292Z,1.90
2023-01-29T04:09:14.605Z,1.95
2023-01-29T04:12:09.242Z,2.00
2023-01-29T04:15:01.559Z,1.80
2023-01-29T04:17:52.818Z,2.20
2023-01-29T04:20:54.021Z,1.90
2023-01-29T04:23:39.927Z,1.90
2023-01-29T04:26:41.158Z,1.83
2023-01-29T04:29:51.433Z,2.10
2023-01-29T04:33:03.225Z,1.90
2023-01-29T04:35:51.374Z,1.80
2023-01-29T04:38:55.308Z,1.70
2023-01-29T04:41:46.480Z,2.13
2023-01-29T04:44:32.053Z,2.10
2023-01-29T04:47:26.304Z,1.83
2023-01-29T04:50:29.573Z,1.70
2023-01-29T04:53:33.050Z,1.88
2023-01-29T04:56:31.612Z,1.83
2023-01-29T04:59:24.144Z,1.90
2023-01-29T05:02:12.081Z,2.00
2023-01-29T05:04:59.210Z,1.90
2023-01-29T05:07:46.127Z,2.10
2023-01-29T05:10:31.641Z,2.00
2023-01-29T05:13:19.661Z,1.90
2023-01-29T05:16:07.059Z,2.03
2023-01-29T05:18:53.554Z,1.80
2023-01-29T05:21:41.319Z,2.00
2023-01-29T05:24:27.205Z,1.70
2023-01-29T05:27:38.809Z,1.90
2023-01-29T05:30:23.889Z,1.70
2023-01-29T05:33:13.732Z,1.87
2023-01-29T05:35:59.832Z,1.80
2023-01-29T05:38:45.167Z,1.73
2023-01-29T05:41:30.409Z,1.67
2023-01-29T05:44:15.813Z,1.70
2023-01-29T05:47:02.770Z,2.17
2023-01-29T05:49:48.225Z,1.87
2023-01-29T05:52:33.566Z,1.70
2023-01-29T05:55:18.872Z,1.90
2023-01-29T05:58:05.900Z,1.93
2023-01-29T06:00:51.525Z,2.23
2023-01-29T06:03:36.742Z,1.80
2023-01-29T06:06:22.073Z,1.90
2023-01-29T06:09:07.301Z,2.13
2023-01-29T06:11:52.581Z,1.73
2023-01-29T06:14:37.860Z,1.83
2023-01-29T06:17:23.317Z,1.70
2023-01-29T06:20:09.273Z,1.60
2023-01-29T06:22:54.613Z,1.90
2023-01-29T06:25:39.993Z,1.90
2023-01-29T06:28:25.193Z,2.03
2023-01-29T06:31:27.421Z,1.70
2023-01-29T06:34:16.888Z,1.70
2023-01-29T06:37:02.399Z,1.70
2023-01-29T06:39:48.159Z,1.90
2023-01-29T06:42:36.801Z,2.00
2023-01-29T06:45:22.373Z,1.70
2023-01-29T06:48:07.998Z,1.83
2023-01-29T06:50:56.600Z,1.90
2023-01-29T06:53:45.841Z,1.87
2023-01-29T06:56:31.793Z,2.00
2023-01-29T06:59:17.523Z,2.10
2023-01-29T07:02:03.933Z,1.57
2023-01-29T07:04:49.332Z,2.60
2023-01-29T07:07:36.958Z,1.70
2023-01-29T07:10:22.655Z,1.40
2023-01-29T07:13:08.153Z,1.60
2023-01-29T07:15:54.156Z,2.10
2023-01-29T07:18:39.887Z,1.80
2023-01-29T07:21:25.601Z,1.87
2023-01-29T07:24:13.545Z,5.90
2023-01-29T07:26:59.209Z,4.60
2023-01-29T07:29:44.596Z,4.00
2023-01-29T07:32:30.091Z,8.50
2023-01-29T07:35:15.509Z,11.90
2023-01-29T07:38:00.828Z,16.17
2023-01-29T07:40:46.140Z,19.57
2023-01-29T07:43:31.643Z,24.00
2023-01-29T07:46:16.984Z,21.17
2023-01-29T07:49:02.198Z,20.53
2023-01-29T07:51:47.387Z,19.20
2023-01-29T07:54:32.684Z,17.67
2023-01-29T07:57:18.079Z,15.03
2023-01-29T08:00:03.964Z,12.80
2023-01-29T08:03:13.320Z,11.40
2023-01-29T08:05:58.974Z,11.53
2023-01-29T08:08:44.430Z,11.07
2023-01-29T08:11:29.774Z,9.63
2023-01-29T08:14:15.272Z,10.77
2023-01-29T08:17:00.970Z,10.23
2023-01-29T08:19:46.267Z,10.27
2023-01-29T08:22:31.521Z,9.90
2023-01-29T08:25:16.693Z,9.73
2023-01-29T08:28:02.416Z,9.50
2023-01-29T08:30:48.163Z,9.00
2023-01-29T08:36:39.191Z,8.20
2023-01-29T08:39:24.313Z,8.13
2023-01-29T08:42:09.642Z,7.97
2023-01-29T08:44:54.844Z,7.67
2023-01-29T08:47:45.911Z,7.83
2023-01-29T08:50:32.410Z,8.03
2023-01-29T08:53:19.591Z,7.33
2023-01-29T08:56:05.588Z,7.80
2023-01-29T08:58:51.124Z,7.60
2023-01-29T09:01:36.409Z,8.30
2023-01-29T09:04:22.319Z,7.00
2023-01-29T09:07:07.849Z,7.33
2023-01-29T09:09:52.757Z,6.87
2023-01-29T09:12:38.061Z,7.23
2023-01-29T09:15:23.933Z,6.60
2023-01-29T09:18:09.258Z,6.50
2023-01-29T09:20:54.816Z,6.03
2023-01-29T09:23:39.918Z,6.00
2023-01-29T09:26:25.265Z,6.17
2023-01-29T09:29:10.696Z,6.20
2023-01-29T09:31:56.395Z,5.73
2023-01-29T09:34:41.610Z,5.97
2023-01-29T09:37:26.827Z,5.87
2023-01-29T09:40:40.066Z,5.77
2023-01-29T09:43:40.135Z,5.28
2023-01-29T09:46:41.888Z,6.03
2023-01-29T09:49:33.309Z,5.37
2023-01-29T09:52:22.548Z,5.07
2023-01-29T09:55:23.281Z,5.43
2023-01-29T09:58:22.569Z,5.00
2023-01-29T10:01:27.991Z,5.13
2023-01-29T10:04:42.709Z,5.07
2023-01-29T10:08:10.051Z,4.90
2023-01-29T10:11:04.995Z,4.77
2023-01-29T10:14:14.980Z,5.00
2023-01-29T10:17:22.251Z,5.63
2023-01-29T10:20:36.850Z,4.97
2023-01-29T10:23:41.570Z,4.90
2023-01-29T10:26:28.484Z,5.40
2023-01-29T10:29:18.304Z,5.37
2023-01-29T10:32:05.979Z,4.60
2023-01-29T10:35:02.823Z,4.60
2023-01-29T10:37:51.860Z,4.77
2023-01-29T10:40:43.986Z,4.70
2023-01-29T10:43:46.864Z,4.57
2023-01-29T10:47:14.403Z,4.70
2023-01-29T10:50:37.176Z,5.00
2023-01-29T10:53:53.293Z,4.77
2023-01-29T10:57:13.919Z,4.23
2023-01-29T11:00:23.934Z,4.57
2023-01-29T11:03:28.818Z,4.47
2023-01-29T11:06:32.205Z,4.63
2023-01-29T11:09:37.825Z,4.63
2023-01-29T11:12:27.337Z,4.47
2023-01-29T11:15:25.954Z,4.80
2023-01-29T11:18:15.518Z,5.20
2023-01-29T11:21:04.362Z,5.17
2023-01-29T11:23:50.516Z,4.97
2023-01-29T11:26:39.545Z,5.23
2023-01-29T11:29:48.206Z,4.77
2023-01-29T11:32:34.951Z,5.47
2023-01-29T11:35:23.864Z,4.93
2023-01-29T11:38:15.714Z,5.30
2023-01-29T11:41:15.242Z,4.97
2023-01-29T11:44:01.161Z,4.57
2023-01-29T11:46:47.635Z,5.03
2023-01-29T11:49:35.345Z,5.20
2023-01-29T11:52:42.325Z,4.60
2023-01-29T11:55:49.509Z,5.00
2023-01-29T11:58:36.471Z,5.33
2023-01-29T12:01:41.479Z,4.80
2023-01-29T12:04:27.435Z,5.10
2023-01-29T12:07:17.973Z,4.90
2023-01-29T12:10:04.532Z,4.60
2023-01-29T12:12:50.793Z,4.50
2023-01-29T12:15:40.447Z,4.50
2023-01-29T12:18:34.761Z,4.90
2023-01-29T12:21:32.295Z,4.83
2023-01-29T12:24:40.248Z,4.23
2023-01-29T12:27:35.559Z,4.67
2023-01-29T12:30:24.318Z,4.37
2023-01-29T12:33:35.625Z,4.43
2023-01-29T12:36:42.991Z,4.23
2023-01-29T12:39:28.806Z,4.87
2023-01-29T12:42:24.606Z,4.83
2023-01-29T12:45:15.155Z,4.83
2023-01-29T12:48:10.653Z,5.07
2023-01-29T12:51:03.027Z,4.50
2023-01-29T12:53:55.003Z,4.70
2023-01-29T12:56:47.241Z,4.53
2023-01-29T12:59:46.095Z,4.73
2023-01-29T13:02:54.589Z,4.60
2023-01-29T13:05:47.071Z,4.57
2023-01-29T13:08:37.731Z,5.10
2023-01-29T13:11:31.415Z,5.40
2023-01-29T13:14:28.801Z,5.80
2023-01-29T13:17:26.446Z,6.43
2023-01-29T13:20:11.989Z,6.10
2023-01-29T13:23:15.524Z,5.90
2023-01-29T13:28:48.259Z,6.43
2023-01-29T13:31:36.714Z,6.53
2023-01-29T13:34:28.513Z,6.43
2023-01-29T13:37:30.268Z,6.28
2023-01-29T13:40:34.847Z,6.33
2023-01-29T13:43:22.787Z,5.93
2023-01-29T13:46:17.842Z,6.73
2023-01-29T13:49:05.119Z,7.03
2023-01-29T13:51:51.380Z,6.20
2023-01-29T13:54:37.610Z,7.00
2023-01-29T13:57:45.008Z,8.40
2023-01-29T14:00:33.627Z,8.70
2023-01-29T14:03:24.974Z,9.80
2023-01-29T14:06:10.650Z,8.30
2023-01-29T14:08:55.953Z,9.67
2023-01-29T14:11:48.614Z,9.57
2023-01-29T14:14:49.333Z,9.70
2023-01-29T14:17:37.569Z,8.77
2023-01-29T14:20:45.501Z,9.43
2023-01-29T14:23:35.868Z,8.70
2023-01-29T14:26:23.427Z,8.33
2023-01-29T14:29:29.056Z,7.67
2023-01-29T14:32:24.878Z,8.67
2023-01-29T14:35:23.166Z,8.03
2023-01-29T14:38:15.264Z,8.30
2023-01-29T14:41:19.091Z,7.83
2023-01-29T14:44:42.115Z,7.37
2023-01-29T14:47:27.793Z,7.13
2023-01-29T14:50:19.295Z,7.03
2023-01-29T14:53:19.747Z,7.73
2023-01-29T14:56:15.769Z,7.40
2023-01-29T14:59:16.567Z,7.77
2023-01-29T15:02:14.322Z,7.90
2023-01-29T15:05:02.572Z,7.70
2023-01-29T15:08:16.608Z,7.90
2023-01-29T15:11:27.019Z,7.70
2023-01-29T15:14:25.276Z,8.00
2023-01-29T15:17:27.404Z,7.57
2023-01-29T15:20:32.418Z,7.17
2023-01-29T15:23:33.069Z,7.80
2023-01-29T15:26:22.275Z,6.60
2023-01-29T15:29:24.684Z,6.87
2023-01-29T15:32:20.344Z,7.20
2023-01-29T15:35:17.022Z,7.60
2023-01-29T15:38:16.563Z,7.13
2023-01-29T15:41:05.082Z,7.73
2023-01-29T15:43:57.424Z,7.90
2023-01-29T15:46:52.769Z,7.70
2023-01-29T15:49:40.036Z,7.43
2023-01-29T15:52:35.107Z,7.60
2023-01-29T15:55:23.806Z,7.47
2023-01-29T15:58:17.858Z,7.70
2023-01-29T16:01:03.796Z,7.73
2023-01-29T16:03:50.818Z,7.27
2023-01-29T16:06:40.246Z,7.90
2023-01-29T16:09:26.555Z,6.60
2023-01-29T16:12:13.712Z,6.87
2023-01-29T16:15:01.124Z,7.77
2023-01-29T16:17:46.854Z,7.00
2023-01-29T16:20:37.285Z,7.20
2023-01-29T16:23:27.834Z,7.40
2023-01-29T16:26:17.393Z,7.60
2023-01-29T16:29:09.662Z,5.63
2023-01-29T16:32:01.740Z,5.70
2023-01-29T16:34:48.903Z,6.00
2023-01-29T16:37:36.410Z,5.60
2023-01-29T16:40:52.551Z,6.60
2023-01-29T16:43:44.197Z,7.73
2023-01-29T16:46:45.140Z,7.13
2023-01-29T16:49:30.849Z,7.00
2023-01-29T16:52:24.828Z,6.63
2023-01-29T16:55:19.944Z,6.30
2023-01-29T16:58:17.168Z,6.10
2023-01-29T17:01:09.179Z,6.67
2023-01-29T17:04:05.809Z,6.47
2023-01-29T17:06:58.091Z,6.10
2023-01-29T17:09:57.960Z,5.80
2023-01-29T17:12:54.847Z,6.20
2023-01-29T17:15:43.351Z,6.23
2023-01-29T17:18:29.758Z,6.97
2023-01-29T17:21:15.208Z,5.97
2023-01-29T17:24:00.760Z,6.83
2023-01-29T17:26:46.284Z,6.40
2023-01-29T17:29:32.150Z,6.73
2023-01-29T17:32:18.957Z,5.80
2023-01-29T17:35:06.577Z,6.47
2023-01-29T17:37:52.169Z,6.40
2023-01-29T17:40:43.023Z,6.80
2023-01-29T17:43:28.691Z,6.77
2023-01-29T17:46:16.942Z,6.33
2023-01-29T17:49:04.622Z,6.40
2023-01-29T17:51:52.164Z,6.50
2023-01-29T17:54:37.519Z,7.30
2023-01-29T17:57:23.203Z,7.40
2023-01-29T18:00:20.416Z,7.10
2023-01-29T18:03:06.254Z,7.30
2023-01-29T18:05:52.034Z,6.93
2023-01-29T18:08:39.193Z,7.57
2023-01-29T18:11:24.939Z,7.90
2023-01-29T18:14:14.085Z,8.03
2023-01-29T18:17:00.138Z,7.83
2023-01-29T18:19:45.590Z,7.80
2023-01-29T18:22:31.276Z,7.33
2023-01-29T18:25:17.115Z,7.40
2023-01-29T18:28:04.093Z,7.97
2023-01-29T18:30:50.667Z,8.17
2023-01-29T18:33:36.700Z,8.00
2023-01-29T18:36:23.457Z,8.33
2023-01-29T18:39:10.378Z,8.03
2023-01-29T18:41:56.136Z,7.80
2023-01-29T18:44:41.607Z,7.87
2023-01-29T18:47:27.076Z,7.00
2023-01-29T18:50:12.672Z,7.50
2023-01-29T18:52:58.397Z,7.40
2023-01-29T18:55:45.696Z,6.80
2023-01-29T18:58:36.394Z,7.80
2023-01-29T19:01:22.799Z,7.10
2023-01-29T19:04:08.416Z,7.03
2023-01-29T19:06:53.932Z,6.93
2023-01-29T19:09:45.819Z,6.63
2023-01-29T19:12:31.514Z,6.20
2023-01-29T19:15:20.830Z,6.50
2023-01-29T19:18:06.856Z,6.33
2023-01-29T19:20:53.124Z,6.40
2023-01-29T19:23:39.277Z,6.53
2023-01-29T19:26:25.197Z,5.80
2023-01-29T19:29:12.649Z,6.07
2023-01-29T19:31:58.359Z,5.97
2023-01-29T19:34:44.326Z,5.80
2023-01-29T19:37:31.020Z,5.30
2023-01-29T19:40:17.089Z,5.97
2023-01-29T19:43:02.646Z,5.33
2023-01-29T19:45:50.669Z,5.60
2023-01-29T19:48:36.874Z,5.10
2023-01-29T19:51:23.507Z,5.60
2023-01-29T19:54:09.675Z,5.30
2023-01-29T19:56:55.538Z,5.30
2023-01-29T19:59:41.026Z,5.37
2023-01-29T20:02:28.524Z,5.13
2023-01-29T20:05:17.416Z,5.17
2023-01-29T20:08:03.571Z,5.27
2023-01-29T20:10:49.702Z,4.83
2023-01-29T20:13:36.033Z,4.90
2023-01-29T20:16:22.328Z,5.07
2023-01-29T20:19:14.636Z,4.87
2023-01-29T20:22:00.640Z,4.88
2023-01-29T20:24:47.304Z,4.90
2023-01-29T20:27:32.835Z,5.00
2023-01-29T20:30:18.621Z,4.77
2023-01-29T20:33:05.372Z,4.80
2023-01-29T20:35:59.391Z,5.50
2023-01-29T20:38:44.861Z,4.57
2023-01-29T20:41:30.038Z,4.60
2023-01-29T20:44:15.511Z,5.10
2023-01-29T20:47:02.645Z,4.50
2023-01-29T20:49:48.952Z,4.80
2023-01-29T20:52:35.814Z,5.70
2023-01-29T20:55:21.328Z,5.23
2023-01-29T20:58:07.452Z,5.80
2023-01-29T21:00:53.318Z,6.00
2023-01-29T21:03:39.726Z,6.00
2023-01-29T21:06:25.489Z,6.20
2023-01-29T21:09:10.725Z,6.30
2023-01-29T21:11:55.959Z,6.40
2023-01-29T21:14:41.394Z,6.10
2023-01-29T21:17:28.205Z,5.40
2023-01-29T21:20:13.806Z,6.20
2023-01-29T21:22:59.557Z,6.27
2023-01-29T21:25:45.284Z,5.80
2023-01-29T21:28:30.832Z,5.60
2023-01-29T21:31:17.643Z,5.80
2023-01-29T21:34:04.695Z,5.87
2023-01-29T21:36:50.171Z,5.63
2023-01-29T21:39:35.478Z,5.63
2023-01-29T21:42:39.589Z,5.60
2023-01-29T21:45:29.231Z,4.60
2023-01-29T21:48:14.781Z,5.40
2023-01-29T21:50:59.997Z,5.40
2023-01-29T21:53:45.465Z,5.67
2023-01-29T21:56:30.596Z,5.87
2023-01-29T21:59:15.862Z,5.20
2023-01-29T22:02:01.675Z,5.47
2023-01-29T22:04:47.103Z,5.17
2023-01-29T22:07:32.382Z,5.73
2023-01-29T22:10:19.252Z,5.50
2023-01-29T22:13:05.209Z,5.00
2023-01-29T22:15:54.957Z,5.30
2023-01-29T22:18:40.379Z,5.70
2023-01-29T22:21:25.732Z,5.10
2023-01-29T22:24:11.338Z,5.20
2023-01-29T22:26:56.716Z,5.80
2023-01-29T22:29:42.284Z,5.10
2023-01-29T22:32:28.809Z,4.83
2023-01-29T22:35:14.214Z,5.60
2023-01-29T22:37:59.811Z,5.50
2023-01-29T22:40:53.160Z,5.37
2023-01-29T22:46:24.172Z,5.20
2023-01-29T22:49:09.412Z,5.40
2023-01-29T22:52:10.095Z,4.93
2023-01-29T22:54:55.878Z,5.67
2023-01-29T22:57:41.047Z,5.27
2023-01-29T23:00:26.768Z,5.47
2023-01-29T23:03:12.059Z,5.33
2023-01-29T23:05:57.335Z,4.90
2023-01-29T23:08:43.195Z,5.40
2023-01-29T23:11:28.457Z,5.10
2023-01-29T23:14:13.863Z,5.43
2023-01-29T23:16:58.955Z,4.97
2023-01-29T23:19:44.251Z,5.17
2023-01-29T23:22:29.584Z,5.17
2023-01-29T23:25:15.202Z,4.90
2023-01-29T23:28:00.744Z,5.17
2023-01-29T23:30:47.878Z,5.07
2023-01-29T23:33:33.338Z,4.63
2023-01-29T23:36:18.768Z,5.00
2023-01-29T23:39:04.078Z,4.87
2023-01-29T23:41:49.297Z,4.73
2023-01-29T23:44:35.613Z,4.80
2023-01-29T23:47:21.056Z,4.47
2023-01-29T23:50:06.847Z,4.40
2023-01-29T23:52:52.114Z,4.90
2023-01-29T23:55:37.450Z,4.07
2023-01-29T23:58:23.051Z,4.43
